createdAt,value
2023-05-08T11:21:21.376Z,21248.00
2023-05-08T11:22:21.359Z,21856.00
2023-05-08T11:23:21.332Z,22464.00
2023-05-08T11:24:21.291Z,23104.00
2023-05-08T11:25:21.288Z,23424.00
2023-05-08T11:26:21.280Z,23840.00
2023-05-08T11:27:21.259Z,23936.00
2023-05-08T11:28:21.261Z,23648.00
2023-05-08T11:29:21.223Z,23136.00
2023-05-08T11:30:21.203Z,22400.00
2023-05-08T11:31:21.246Z,21408.00
2023-05-08T11:32:21.199Z,20160.00
2023-05-08T11:49:30.100Z,22016.00
2023-05-08T11:50:29.392Z,22208.00
2023-05-08T11:51:29.352Z,22496.00
2023-05-08T11:52:29.366Z,23040.00
2023-05-08T11:53:29.327Z,23616.00
2023-05-08T11:54:29.357Z,24288.00
2023-05-08T11:55:29.324Z,24896.00
2023-05-08T11:56:29.302Z,25376.00
2023-05-08T11:57:29.283Z,25536.00
2023-05-08T11:58:29.302Z,25280.00
2023-05-08T11:59:29.280Z,24896.00
2023-05-08T12:00:29.389Z,24480.00
2023-05-08T12:01:29.262Z,24032.00
2023-05-08T12:02:30.404Z,23776.00
2023-05-08T12:03:29.353Z,23552.00
2023-05-08T12:04:29.384Z,23488.00
2023-05-08T12:05:29.224Z,23712.00
2023-05-08T12:06:29.218Z,24224.00
2023-05-08T12:07:29.203Z,24608.00
2023-05-08T12:08:29.200Z,25088.00
2023-05-08T12:09:29.186Z,24992.00
2023-05-08T12:10:29.189Z,25088.00
2023-05-08T12:11:29.144Z,24768.00
2023-05-08T12:12:29.159Z,24640.00
2023-05-08T12:13:29.255Z,24864.00
2023-05-08T12:14:29.122Z,24032.00
2023-05-08T12:15:29.117Z,23392.00
2023-05-08T12:16:29.164Z,23968.00
2023-05-08T12:17:29.118Z,24096.00
2023-05-08T12:18:29.112Z,23904.00
2023-05-08T12:19:29.102Z,24352.00
2023-05-08T12:20:29.102Z,24864.00
2023-05-08T12:21:29.056Z,25312.00
2023-05-08T12:22:29.069Z,25696.00
2023-05-08T12:23:29.052Z,25632.00
2023-05-08T12:24:29.058Z,25152.00
2023-05-08T12:25:29.032Z,24672.00
2023-05-08T12:26:29.030Z,24288.00
2023-05-08T12:27:29.008Z,24256.00
2023-05-08T12:28:28.992Z,24512.00
2023-05-08T12:29:29.007Z,24960.00
2023-05-08T12:30:29.014Z,25504.00
2023-05-08T12:31:28.984Z,26336.00
2023-05-08T12:32:29.191Z,27072.00
2023-05-08T12:33:28.953Z,27552.00
2023-05-08T12:34:28.961Z,27424.00
2023-05-08T12:35:28.936Z,27360.00
2023-05-08T12:36:28.924Z,25952.00
2023-05-08T12:37:28.913Z,24288.00
2023-05-08T12:38:28.915Z,24864.00
2023-05-08T12:39:28.915Z,24896.00
2023-05-08T12:40:28.925Z,24832.00
2023-05-08T12:41:28.916Z,22208.00
2023-05-08T12:42:28.909Z,19680.00
2023-05-08T12:43:28.923Z,18656.00
2023-05-08T12:44:28.890Z,17920.00
2023-05-08T12:45:28.869Z,20032.00
2023-05-08T12:46:28.925Z,20576.00
2023-05-08T12:47:28.884Z,20704.00
2023-05-08T12:48:28.861Z,20992.00
2023-05-08T12:49:28.825Z,23072.00
2023-05-08T12:50:28.821Z,24032.00
2023-05-08T12:51:28.823Z,24256.00
2023-05-08T12:52:28.835Z,24736.00
2023-05-08T12:53:28.873Z,25088.00
2023-05-08T12:54:28.812Z,24160.00
2023-05-08T12:55:28.813Z,23680.00
2023-05-08T12:56:28.812Z,25088.00
2023-05-08T12:57:28.763Z,23776.00
2023-05-08T12:58:28.765Z,21920.00
2023-05-08T12:59:28.748Z,23648.00
2023-05-08T13:00:28.749Z,22816.00
2023-05-08T13:01:28.777Z,23840.00
2023-05-08T13:02:28.947Z,24256.00
2023-05-08T13:03:28.855Z,23104.00
2023-05-08T13:04:28.869Z,24288.00
2023-05-08T13:05:28.732Z,26560.00
2023-05-08T13:06:28.737Z,26304.00
2023-05-08T13:07:28.685Z,23744.00
2023-05-08T13:08:28.710Z,24320.00
2023-05-08T13:09:28.763Z,22912.00
2023-05-08T13:10:28.697Z,21792.00
2023-05-08T13:11:28.654Z,23264.00
2023-05-08T13:12:28.689Z,25888.00
2023-05-08T13:13:28.725Z,26848.00
2023-05-08T13:14:28.661Z,27072.00
2023-05-08T13:15:28.644Z,27296.00
2023-05-08T13:16:28.715Z,26912.00
2023-05-08T13:17:28.683Z,28288.00
2023-05-08T13:18:28.629Z,24704.00
2023-05-08T13:19:28.630Z,27200.00
2023-05-08T13:20:28.618Z,29344.00
2023-05-08T13:21:28.604Z,26176.00
2023-05-08T13:22:28.620Z,26528.00
2023-05-08T13:23:28.772Z,27296.00
2023-05-08T13:24:28.601Z,35808.00
2023-05-08T13:25:28.657Z,31712.00
2023-05-08T13:26:28.591Z,53408.00
2023-05-08T13:27:28.570Z,33824.00
2023-05-08T13:28:28.591Z,34272.00
2023-05-08T13:29:28.570Z,42464.00
2023-05-08T13:30:28.569Z,31968.00
2023-05-08T13:31:28.562Z,21920.00
2023-05-08T13:32:28.613Z,46816.00
2023-05-08T13:33:28.559Z,39808.00
2023-05-08T13:34:28.564Z,24160.00
2023-05-08T13:35:28.536Z,19104.00
2023-05-08T13:36:28.528Z,19360.00
2023-05-08T13:37:28.536Z,31488.00
2023-05-08T13:38:28.513Z,78240.00
2023-05-08T13:39:28.516Z,78528.00
2023-05-08T13:40:28.519Z,49888.00
2023-05-08T13:41:28.598Z,78240.00
2023-05-08T13:42:28.509Z,73760.00
2023-05-08T13:43:28.494Z,45376.00
2023-05-08T13:44:28.499Z,43744.00
2023-05-08T13:45:28.471Z,35392.00
2023-05-08T13:46:28.518Z,60896.00
2023-05-08T13:47:28.485Z,74592.00
2023-05-08T13:48:28.490Z,73984.00
2023-05-08T13:49:28.465Z,72256.00
2023-05-08T13:50:28.450Z,71424.00
2023-05-08T13:51:28.454Z,67424.00
2023-05-08T13:52:28.443Z,72864.00
2023-05-08T13:53:28.447Z,71776.00
2023-05-08T13:54:28.429Z,56064.00
2023-05-08T13:55:28.445Z,34560.00
2023-05-08T13:56:28.437Z,33312.00
2023-05-08T13:57:28.491Z,47968.00
2023-05-08T13:58:28.424Z,29376.00
2023-05-08T13:59:28.402Z,55584.00
2023-05-08T14:00:28.434Z,71968.00
2023-05-08T14:01:28.459Z,46080.00
2023-05-08T14:02:28.508Z,72000.00
2023-05-08T14:03:28.456Z,58720.00
2023-05-08T14:04:28.399Z,38688.00
2023-05-08T14:05:28.401Z,37984.00
2023-05-08T14:06:28.421Z,43296.00
2023-05-08T14:07:28.388Z,53248.00
2023-05-08T14:08:28.407Z,38944.00
2023-05-08T14:09:28.366Z,58336.00
2023-05-08T14:10:28.388Z,35296.00
2023-05-08T14:11:28.367Z,75392.00
2023-05-08T14:12:28.364Z,64192.00
2023-05-08T14:13:28.632Z,72640.00
2023-05-08T14:14:28.357Z,72736.00
2023-05-08T14:15:36.497Z,72928.00
2023-05-08T14:16:28.395Z,70880.00
2023-05-08T14:17:28.401Z,70176.00
2023-05-08T14:18:28.361Z,68640.00
2023-05-08T14:19:28.356Z,60192.00
2023-05-08T14:20:28.362Z,43456.00
2023-05-08T14:21:28.359Z,41664.00
2023-05-08T14:22:28.345Z,44384.00
2023-05-08T14:23:28.324Z,50688.00
2023-05-08T14:24:28.325Z,51616.00
2023-05-08T14:25:28.321Z,52768.00
2023-05-08T14:26:28.305Z,54496.00
2023-05-08T14:27:28.290Z,46496.00
2023-05-08T14:28:28.329Z,50976.00
2023-05-08T14:29:28.384Z,56832.00
2023-05-08T14:30:28.306Z,62240.00
2023-05-08T14:31:28.340Z,58912.00
2023-05-08T14:32:28.436Z,59552.00
2023-05-08T14:33:28.293Z,50368.00
2023-05-08T14:34:28.267Z,50656.00
2023-05-08T14:35:28.249Z,50784.00
2023-05-08T14:36:28.257Z,43712.00
2023-05-08T14:37:28.239Z,37280.00
2023-05-08T14:38:28.249Z,34784.00
2023-05-08T14:39:28.257Z,33472.00
2023-05-08T14:40:28.231Z,33248.00
2023-05-08T14:41:28.221Z,32800.00
2023-05-08T14:42:28.223Z,32768.00
2023-05-08T14:43:28.227Z,35008.00
2023-05-08T14:44:28.232Z,30848.00
2023-05-08T14:45:28.299Z,31168.00
2023-05-08T14:46:28.277Z,37568.00
2023-05-08T14:47:28.252Z,25344.00
2023-05-08T14:48:28.213Z,22656.00
2023-05-08T14:49:36.811Z,22624.00
2023-05-08T14:50:28.195Z,20736.00
2023-05-08T14:51:28.172Z,19776.00
2023-05-08T14:52:28.181Z,20288.00
2023-05-08T14:53:28.261Z,21056.00
2023-05-08T14:54:28.233Z,20320.00
2023-05-08T14:55:28.350Z,19904.00
2023-05-08T14:56:30.318Z,19904.00
2023-05-08T14:57:28.148Z,19680.00
2023-05-08T14:58:28.150Z,19840.00
2023-05-08T14:59:28.149Z,19872.00
2023-05-08T15:00:28.126Z,19808.00
2023-05-08T15:01:28.216Z,19616.00
2023-05-08T15:02:28.144Z,19136.00
2023-05-08T15:03:28.241Z,18880.00
2023-05-08T15:12:39.588Z,18336.00
2023-05-08T15:13:39.521Z,20768.00
2023-05-08T15:14:39.503Z,23360.00
2023-05-08T15:15:39.508Z,24512.00
2023-05-08T15:16:39.598Z,24576.00
2023-05-08T15:17:39.512Z,24000.00
2023-05-08T15:18:39.472Z,22752.00
2023-05-08T15:19:39.460Z,22304.00
2023-05-08T15:20:39.447Z,22688.00
2023-05-08T15:21:39.446Z,23552.00
2023-05-08T15:22:39.441Z,23040.00
2023-05-08T15:23:39.394Z,22304.00
2023-05-08T15:24:39.397Z,22144.00
2023-05-08T15:25:39.405Z,22208.00
2023-05-08T15:26:39.367Z,21312.00
2023-05-08T15:27:39.366Z,20640.00
2023-05-08T15:28:39.367Z,20352.00
2023-05-08T15:29:39.350Z,20320.00
2023-05-08T15:30:39.330Z,20480.00
2023-05-08T15:31:39.396Z,20448.00
2023-05-08T15:32:39.411Z,20096.00
2023-05-08T15:33:39.297Z,19744.00
2023-05-08T15:34:40.714Z,19200.00
2023-05-08T15:35:39.262Z,18592.00
2023-05-08T15:36:39.280Z,18208.00
2023-05-08T15:37:39.260Z,18464.00
2023-05-08T15:38:39.259Z,19264.00
2023-05-08T15:39:39.238Z,22304.00
2023-05-08T15:40:39.235Z,24512.00
2023-05-08T15:41:39.208Z,29376.00
2023-05-08T15:42:39.211Z,20480.00
2023-05-08T15:43:39.197Z,19744.00
2023-05-08T15:45:39.212Z,23584.00
2023-05-08T15:46:39.187Z,20288.00
2023-05-08T15:47:39.202Z,19008.00
2023-05-08T15:48:39.218Z,19072.00
2023-05-08T15:49:39.113Z,20512.00
2023-05-08T15:50:39.128Z,24000.00
2023-05-08T15:51:39.112Z,31136.00
2023-05-08T15:52:39.095Z,33152.00
2023-05-08T15:53:39.140Z,42848.00
2023-05-08T15:54:39.064Z,37664.00
2023-05-08T15:55:39.045Z,38112.00
2023-05-08T15:56:39.059Z,35776.00
2023-05-08T15:57:39.058Z,31744.00
2023-05-08T15:58:39.056Z,34720.00
2023-05-08T15:59:39.022Z,31744.00
2023-05-08T16:00:44.713Z,30432.00
2023-05-08T16:01:39.033Z,34336.00
2023-05-08T16:02:39.128Z,36800.00
2023-05-08T16:03:39.021Z,36992.00
2023-05-08T16:04:39.042Z,32960.00
2023-05-08T16:05:38.946Z,33824.00
2023-05-08T16:06:38.950Z,33024.00
2023-05-08T16:07:38.969Z,32256.00
2023-05-08T16:08:38.950Z,33056.00
2023-05-08T16:09:38.916Z,32512.00
2023-05-08T16:10:38.914Z,30336.00
2023-05-08T16:11:38.922Z,32032.00
2023-05-08T16:12:38.949Z,29408.00
2023-05-08T16:13:38.905Z,31040.00
2023-05-08T16:14:38.898Z,30816.00
2023-05-08T16:15:38.913Z,29920.00
2023-05-08T16:16:38.877Z,28000.00
2023-05-08T16:17:38.942Z,26464.00
2023-05-08T16:18:38.858Z,27104.00
2023-05-08T16:19:38.879Z,25856.00
2023-05-08T16:20:38.934Z,26784.00
2023-05-08T16:21:38.852Z,24416.00
2023-05-08T16:22:38.818Z,21568.00
2023-05-08T16:23:38.819Z,23328.00
2023-05-08T16:24:38.810Z,22912.00
2023-05-08T16:25:38.809Z,20800.00
2023-05-08T16:26:38.810Z,19040.00
2023-05-08T16:32:42.744Z,17344.00
2023-05-08T16:33:42.665Z,19104.00
2023-05-08T16:34:42.669Z,17824.00
2023-05-08T16:35:42.721Z,16640.00
2023-05-08T16:38:17.680Z,17184.00
2023-05-08T16:39:17.710Z,16800.00
2023-05-08T16:40:17.682Z,15872.00
